Time;durP1;ratioP1;P1;durP2;ratioP2;P2;SDS_P1;SDS_P2;PMS_P1;PMS_P2;Temp;Humidity;BMP_temperature;BMP_pressure;BME280_temperature;BME280_humidity;BME280_pressure;Samples;Min_cycle;Max_cycle;Signal;HPM_P1;HPM_P2
2023/10/08 00:02:26;;;;;;;7.60;4.93;;;;;;;14.15;56.40;95079.53;5079980;28;20190;-43
2023/10/08 00:04:54;;;;;;;11.03;5.07;;;;;;;14.15;56.15;95080.34;5091296;28;20193;-43
2023/10/08 00:07:21;;;;;;;5.60;4.50;;;;;;;14.17;55.89;95075.06;5090995;28;20197;-45
2023/10/08 00:09:51;;;;;;;7.80;4.80;;;;;;;14.18;55.61;95069.75;5091419;28;20213;-45
2023/10/08 00:12:18;;;;;;;8.67;4.30;;;;;;;14.20;55.38;95077.31;5090806;28;20639;-45
2023/10/08 00:14:44;;;;;;;9.20;4.57;;;;;;;14.19;55.89;95063.66;5091058;28;20189;-43
2023/10/08 00:17:13;;;;;;;8.83;4.43;;;;;;;14.17;56.23;95057.88;5091154;28;20653;-45
2023/10/08 00:19:42;;;;;;;6.33;4.20;;;;;;;14.18;56.33;95066.38;5090729;28;20250;-44
2023/10/08 00:22:10;;;;;;;9.90;4.30;;;;;;;14.17;56.20;95063.00;5091134;28;20186;-44
2023/10/08 00:24:40;;;;;;;6.30;4.13;;;;;;;14.18;56.08;95061.25;5090906;28;20200;-44
2023/10/08 00:27:08;;;;;;;7.27;5.20;;;;;;;14.20;56.00;95049.03;5091458;28;20269;-44
2023/10/08 00:29:39;;;;;;;7.90;4.30;;;;;;;14.19;55.97;95044.84;5091042;28;20221;-45
2023/10/08 00:32:11;;;;;;;8.43;4.10;;;;;;;14.22;55.57;95053.06;5093259;28;20186;-49
2023/10/08 00:34:42;;;;;;;6.43;3.80;;;;;;;14.26;55.53;95048.44;5094315;28;20683;-45
2023/10/08 00:37:10;;;;;;;5.97;3.90;;;;;;;14.29;55.13;95042.97;5094257;28;20720;-48
2023/10/08 00:39:39;;;;;;;8.43;3.97;;;;;;;14.33;54.90;95041.72;5093751;28;20228;-48
2023/10/08 00:42:07;;;;;;;7.17;5.00;;;;;;;14.37;54.92;95047.34;5091255;28;20185;-44
2023/10/08 00:44:41;;;;;;;7.23;3.90;;;;;;;14.30;55.56;95035.13;5090232;28;20229;-44
2023/10/08 00:47:10;;;;;;;6.43;4.40;;;;;;;14.43;55.66;95039.06;5090460;28;20200;-44
2023/10/08 00:50:03;;;;;;;6.97;4.27;;;;;;;14.38;55.51;95033.53;5090087;28;20693;-44
2023/10/08 00:52:40;;;;;;;8.37;4.90;;;;;;;14.35;55.88;95042.38;5089133;28;20197;-43
2023/10/08 00:55:20;;;;;;;8.83;4.90;;;;;;;14.34;56.38;95038.19;5090135;28;20189;-44
2023/10/08 00:57:50;;;;;;;6.20;5.03;;;;;;;14.26;56.61;95036.38;5090430;28;20541;-44
2023/10/08 01:00:21;;;;;;;7.80;4.73;;;;;;;14.29;56.82;95032.69;5090621;28;20197;-43
2023/10/08 01:03:00;;;;;;;10.00;5.97;;;;;;;14.02;56.98;94997.63;5090063;28;20550;-43
2023/10/08 01:05:46;;;;;;;7.53;4.43;;;;;;;14.16;57.39;95027.97;5090192;28;20194;-43
2023/10/08 01:08:18;;;;;;;9.30;5.30;;;;;;;14.11;57.76;95039.63;5088573;28;20232;-45
2023/10/08 01:10:46;;;;;;;7.33;4.10;;;;;;;14.04;58.04;95035.09;5090763;28;20190;-46
2023/10/08 01:13:15;;;;;;;9.40;5.20;;;;;;;13.98;58.31;95033.13;5090168;28;20192;-44
2023/10/08 01:15:44;;;;;;;9.83;5.47;;;;;;;13.95;58.52;95022.34;5088124;28;20190;-46
2023/10/08 01:18:15;;;;;;;8.83;4.50;;;;;;;13.90;58.73;95027.13;5089479;28;20186;-45
2023/10/08 01:20:52;;;;;;;7.07;4.80;;;;;;;13.84;59.47;95028.53;5090258;28;20186;-44
2023/10/08 01:23:22;;;;;;;9.33;5.77;;;;;;;13.80;59.68;95028.00;5089670;28;20715;-44
2023/10/08 01:25:52;;;;;;;7.63;5.27;;;;;;;13.78;59.93;95026.56;5089454;28;20229;-45
2023/10/08 01:28:25;;;;;;;8.97;4.50;;;;;;;13.53;60.13;94994.72;5089500;28;20296;-44
2023/10/08 01:30:54;;;;;;;12.33;5.50;;;;;;;13.70;60.31;95026.50;5089607;28;20632;-44
2023/10/08 01:33:27;;;;;;;7.53;4.90;;;;;;;13.61;60.64;95024.81;5089622;28;20190;-45
2023/10/08 01:35:55;;;;;;;8.43;5.20;;;;;;;13.61;60.87;95040.25;5089768;28;20196;-44
2023/10/08 01:38:23;;;;;;;10.83;5.30;;;;;;;13.55;61.48;95044.19;5089318;28;20189;-44
2023/10/08 01:40:51;;;;;;;7.87;4.60;;;;;;;12.96;61.42;94945.38;5089231;28;20332;-44
2023/10/08 01:43:18;;;;;;;10.17;5.83;;;;;;;13.44;61.33;95036.72;5089264;28;20224;-46
2023/10/08 01:45:50;;;;;;;8.40;5.33;;;;;;;13.43;61.51;95041.03;5089868;28;20204;-44
2023/10/08 01:48:20;;;;;;;7.37;5.43;;;;;;;13.38;61.28;95042.41;5089721;28;20220;-45
2023/10/08 01:50:47;;;;;;;8.07;5.40;;;;;;;13.33;61.74;95042.06;5089656;28;20572;-45
2023/10/08 01:53:16;;;;;;;10.27;4.93;;;;;;;13.29;61.58;95037.19;5089408;28;20229;-43
2023/10/08 01:55:49;;;;;;;10.43;5.40;;;;;;;13.17;61.84;95033.22;5089172;28;20281;-44
2023/10/08 01:58:18;;;;;;;10.17;5.17;;;;;;;13.15;61.97;95032.53;5089696;28;20196;-43
2023/10/08 02:00:47;;;;;;;9.37;4.67;;;;;;;13.15;61.93;95040.25;5089875;28;20193;-45
2023/10/08 02:03:15;;;;;;;10.70;5.30;;;;;;;13.09;62.36;95034.91;5089391;28;20201;-44
2023/10/08 02:05:43;;;;;;;7.93;4.60;;;;;;;13.03;62.74;95037.06;5089881;28;20204;-44
2023/10/08 02:08:11;;;;;;;7.97;5.10;;;;;;;13.00;62.45;95023.72;5089079;28;20194;-44
2023/10/08 02:10:39;;;;;;;7.73;5.07;;;;;;;13.02;62.49;95030.31;5089141;28;20622;-44
2023/10/08 02:13:08;;;;;;;9.43;5.83;;;;;;;12.95;62.82;95026.72;5089067;28;20711;-46
2023/10/08 02:15:36;;;;;;;7.77;4.83;;;;;;;12.94;63.01;95032.78;5089501;28;20193;-44
2023/10/08 02:18:04;;;;;;;11.73;5.37;;;;;;;12.89;63.24;95029.84;5089486;28;20194;-44
2023/10/08 02:20:31;;;;;;;9.20;5.40;;;;;;;12.85;63.50;95030.28;5089230;28;20246;-43
2023/10/08 02:23:00;;;;;;;11.27;5.57;;;;;;;12.84;63.48;95032.06;5088859;28;20188;-45
2023/10/08 02:25:27;;;;;;;9.57;6.30;;;;;;;12.75;63.35;95012.38;5089409;28;20273;-44
2023/10/08 02:27:54;;;;;;;7.10;5.20;;;;;;;12.24;63.11;94949.56;5092764;28;20637;-44
2023/10/08 02:30:22;;;;;;;7.57;5.20;;;;;;;12.78;63.01;95019.81;5093438;28;20573;-44
2023/10/08 02:32:49;;;;;;;11.83;5.30;;;;;;;12.72;63.40;95028.06;5093209;28;20194;-45
2023/10/08 02:35:16;;;;;;;7.80;4.83;;;;;;;12.68;63.48;95024.97;5092954;28;20190;-44
2023/10/08 02:37:45;;;;;;;8.77;5.47;;;;;;;12.59;63.64;95015.53;5093373;28;20185;-44
2023/10/08 02:40:19;;;;;;;8.77;5.50;;;;;;;12.58;63.53;95021.63;5093315;28;20619;-45
2023/10/08 02:42:47;;;;;;;9.17;5.07;;;;;;;12.56;63.44;95023.53;5093785;28;20217;-43
2023/10/08 02:45:16;;;;;;;7.43;5.53;;;;;;;12.49;63.41;95017.34;5093431;28;20226;-44
2023/10/08 02:47:45;;;;;;;7.37;5.40;;;;;;;12.53;63.31;95013.56;5093465;28;20680;-44
2023/10/08 02:50:16;;;;;;;9.97;5.43;;;;;;;12.51;63.39;95018.00;5092887;28;20213;-44
2023/10/08 02:52:45;;;;;;;8.37;5.10;;;;;;;12.51;63.73;95023.13;5092797;28;20600;-45
2023/10/08 02:55:23;;;;;;;7.73;5.37;;;;;;;12.48;64.03;95024.25;5092353;28;20189;-45
2023/10/08 02:57:51;;;;;;;8.00;5.00;;;;;;;12.45;64.25;95023.72;5091478;28;20284;-43
2023/10/08 03:00:20;;;;;;;7.50;5.20;;;;;;;12.43;64.59;95030.72;5092564;28;20232;-44
2023/10/08 03:02:49;;;;;;;8.43;5.37;;;;;;;11.90;64.75;94951.84;5092225;28;20285;-45
2023/10/08 03:05:17;;;;;;;7.80;5.37;;;;;;;12.35;64.84;95028.88;5092117;28;20296;-45
2023/10/08 03:07:44;;;;;;;7.20;4.93;;;;;;;12.32;65.60;95029.16;5092323;28;20645;-45
2023/10/08 03:10:18;;;;;;;8.13;5.10;;;;;;;12.26;65.77;95024.56;5092266;28;20229;-44
2023/10/08 03:12:47;;;;;;;9.07;4.63;;;;;;;12.23;65.94;95025.69;5092361;28;20190;-44
2023/10/08 03:15:28;;;;;;;9.10;5.40;;;;;;;12.19;66.13;95026.09;5091768;28;20501;-45
2023/10/08 03:18:07;;;;;;;7.73;5.10;;;;;;;12.13;66.42;95022.31;5092006;28;20186;-44
2023/10/08 03:20:42;;;;;;;11.40;5.27;;;;;;;12.10;66.39;95016.69;5092023;28;20273;-44
2023/10/08 03:23:22;;;;;;;6.50;5.07;;;;;;;12.07;66.44;95014.38;5091589;28;20289;-45
2023/10/08 03:25:56;;;;;;;6.17;4.43;;;;;;;12.03;66.95;95009.53;5092097;28;20197;-44
2023/10/08 03:28:24;;;;;;;9.37;4.63;;;;;;;11.99;67.30;95015.06;5091692;28;20197;-45
2023/10/08 03:30:56;;;;;;;9.07;5.03;;;;;;;11.98;67.79;95016.03;5091952;28;20189;-45
2023/10/08 03:33:24;;;;;;;7.57;5.57;;;;;;;11.97;67.58;95011.84;5091790;28;20638;-44
2023/10/08 03:35:52;;;;;;;10.10;5.17;;;;;;;11.99;67.72;95013.31;5091867;28;20251;-45
2023/10/08 03:38:28;;;;;;;8.20;4.73;;;;;;;11.98;67.54;95010.91;5091335;28;20186;-44
2023/10/08 03:40:57;;;;;;;7.37;5.03;;;;;;;11.98;67.94;95010.91;5091739;28;20238;-47
2023/10/08 03:43:33;;;;;;;8.63;5.60;;;;;;;11.94;68.31;95000.09;5091793;28;20234;-45
2023/10/08 03:46:05;;;;;;;7.30;4.97;;;;;;;11.91;68.43;94995.25;5090695;28;20680;-43
2023/10/08 03:48:36;;;;;;;8.40;4.93;;;;;;;11.89;68.88;94993.78;5092425;28;20315;-43
2023/10/08 03:51:11;;;;;;;7.17;5.23;;;;;;;11.87;68.84;94993.91;5091866;28;20200;-44
2023/10/08 03:53:57;;;;;;;11.40;5.10;;;;;;;11.87;69.07;94998.22;5091749;28;20192;-44
2023/10/08 03:56:24;;;;;;;10.70;4.30;;;;;;;11.81;69.19;94995.25;5091402;28;20197;-44
2023/10/08 03:58:53;;;;;;;6.37;4.47;;;;;;;11.77;69.14;94988.78;5091129;28;20186;-44
2023/10/08 04:01:21;;;;;;;7.70;4.63;;;;;;;11.81;69.23;94979.88;5091337;28;20267;-45
2023/10/08 04:06:37;;;;;;;8.60;5.30;;;;;;;11.74;69.56;94985.69;5089052;28;20228;-43
2023/10/08 04:09:23;;;;;;;9.80;5.20;;;;;;;11.72;69.81;94985.00;5091090;28;20221;-45
2023/10/08 04:11:53;;;;;;;14.43;5.27;;;;;;;11.69;69.66;94982.72;5090952;28;20239;-43
2023/10/08 04:14:21;;;;;;;8.50;5.30;;;;;;;11.67;69.84;94987.19;5091090;28;20684;-46
2023/10/08 04:16:51;;;;;;;9.93;5.33;;;;;;;11.67;70.16;94982.88;5091187;28;20567;-45
2023/10/08 04:19:20;;;;;;;11.17;5.43;;;;;;;11.68;69.76;94988.78;5091181;28;20189;-43
2023/10/08 04:21:53;;;;;;;8.03;5.43;;;;;;;11.65;69.85;94987.31;5089319;28;20257;-45
2023/10/08 04:24:28;;;;;;;9.90;4.60;;;;;;;11.71;69.69;94986.78;5090640;28;20542;-45
2023/10/08 04:26:57;;;;;;;13.10;4.90;;;;;;;11.74;69.65;94981.38;5091470;28;20602;-43
2023/10/08 04:29:24;;;;;;;11.07;5.53;;;;;;;11.80;69.37;94980.81;5091985;28;20248;-44
2023/10/08 04:32:01;;;;;;;8.37;4.83;;;;;;;11.83;69.08;94966.13;5092035;28;20197;-45
2023/10/08 04:34:29;;;;;;;10.30;5.70;;;;;;;11.86;69.34;94974.34;5093083;28;20249;-46
2023/10/08 04:37:00;;;;;;;12.97;5.83;;;;;;;11.51;69.80;94933.94;5092463;28;20265;-43
2023/10/08 04:39:32;;;;;;;8.10;4.53;;;;;;;11.77;69.85;94973.41;5092981;28;20186;-45
2023/10/08 04:42:13;;;;;;;8.17;4.77;;;;;;;11.81;69.83;94974.75;5092845;28;20212;-44
2023/10/08 04:44:40;;;;;;;9.27;5.27;;;;;;;11.89;69.58;94979.22;5092872;28;20225;-44
2023/10/08 04:47:09;;;;;;;11.50;5.77;;;;;;;11.95;69.45;94980.41;5092256;28;20197;-45
2023/10/08 04:49:45;;;;;;;7.27;5.53;;;;;;;11.99;69.37;94985.13;5092078;28;20610;-44
2023/10/08 04:52:14;;;;;;;11.80;5.80;;;;;;;12.07;68.62;94988.75;5091166;28;20249;-44
2023/10/08 04:54:51;;;;;;;9.70;5.20;;;;;;;12.04;68.52;94995.75;5091477;28;20189;-44
2023/10/08 04:57:21;;;;;;;7.57;5.27;;;;;;;12.05;68.45;94994.81;5090793;28;20201;-44
2023/10/08 04:59:50;;;;;;;10.73;4.93;;;;;;;12.07;68.38;94993.88;5091760;28;20610;-45
2023/10/08 05:02:20;;;;;;;8.30;5.43;;;;;;;12.13;68.87;94998.44;5091648;28;20185;-45
2023/10/08 05:05:07;;;;;;;12.77;5.30;;;;;;;12.18;68.89;94993.72;5094311;28;20190;-45
2023/10/08 05:13:30;;;;;;;11.23;5.43;;;;;;;12.32;69.05;94993.25;5087228;27;21309;-46
2023/10/08 05:16:11;;;;;;;10.43;5.47;;;;;;;12.47;68.22;95006.41;5087728;28;20549;-44
2023/10/08 05:19:14;;;;;;;10.43;5.20;;;;;;;12.49;67.57;94982.25;5087471;28;20186;-44
2023/10/08 05:22:01;;;;;;;10.27;5.33;;;;;;;12.88;67.22;95006.91;5086766;28;20204;-45
2023/10/08 05:24:37;;;;;;;7.90;5.10;;;;;;;13.08;66.70;95000.69;5086806;28;20189;-43
2023/10/08 05:27:37;;;;;;;8.97;5.47;;;;;;;13.29;66.50;95003.00;5086297;28;20296;-45
2023/10/08 05:30:25;;;;;;;14.17;5.37;;;;;;;13.53;65.81;95003.22;5086769;28;20233;-45
2023/10/08 05:33:12;;;;;;;11.00;5.80;;;;;;;13.81;64.91;95003.09;5086625;28;20221;-45
2023/10/08 05:35:48;;;;;;;7.67;5.67;;;;;;;14.12;63.87;95002.66;5086497;28;20182;-45
2023/10/08 05:38:22;;;;;;;8.80;5.27;;;;;;;14.43;62.91;95003.03;5086967;28;20425;-44
2023/10/08 05:41:04;;;;;;;8.90;5.70;;;;;;;14.69;61.65;95005.59;5086483;28;20189;-45
2023/10/08 05:49:03;;;;;;;11.73;5.43;;;;;;;15.67;57.72;95011.78;5042885;28;20213;-46
2023/10/08 05:51:44;;;;;;;13.50;5.87;;;;;;;15.66;57.07;94989.50;5043773;28;20220;-44
2023/10/08 05:54:24;;;;;;;9.00;5.90;;;;;;;16.12;56.39;95022.53;5043946;28;20221;-44
2023/10/08 05:57:06;;;;;;;10.17;6.23;;;;;;;16.33;56.46;95019.44;5043877;28;20268;-45
2023/10/08 05:59:38;;;;;;;8.30;6.20;;;;;;;16.54;55.28;95032.63;5043809;28;20282;-45
2023/10/08 06:02:27;;;;;;;9.87;5.83;;;;;;;16.64;55.24;95020.31;5043637;28;20198;-45
2023/10/08 06:05:09;;;;;;;8.27;6.00;;;;;;;16.98;54.53;95032.97;5043570;28;20207;-45
2023/10/08 06:07:48;;;;;;;10.50;6.37;;;;;;;17.26;53.32;95028.13;5043495;28;20678;-48
2023/10/08 06:10:42;;;;;;;12.63;6.30;;;;;;;17.46;52.67;95023.31;5043586;28;20199;-45
2023/10/08 06:13:06;;;;;;;11.70;6.57;;;;;;;17.66;51.87;94994.41;5042935;28;20230;-45
2023/10/08 06:15:44;;;;;;;12.23;6.57;;;;;;;17.83;51.39;95019.19;5043128;28;20249;-46
2023/10/08 06:18:14;;;;;;;12.10;6.77;;;;;;;17.94;51.75;94998.09;5043268;28;20222;-46
2023/10/08 06:20:43;;;;;;;14.20;5.53;;;;;;;18.11;50.54;95010.88;5042924;28;20282;-44
2023/10/08 06:23:11;;;;;;;10.00;6.60;;;;;;;18.17;50.62;95013.56;5053411;28;20273;-45
2023/10/08 06:25:44;;;;;;;10.40;6.13;;;;;;;18.28;50.20;94999.41;5075620;28;20248;-46
2023/10/08 06:28:13;;;;;;;9.73;5.43;;;;;;;18.38;49.71;95007.69;5072245;28;20198;-45
2023/10/08 06:30:41;;;;;;;9.37;5.70;;;;;;;18.45;49.07;95003.44;5072272;28;20277;-46
2023/10/08 06:33:08;;;;;;;16.30;6.07;;;;;;;18.52;48.85;95009.50;5071993;28;20256;-45
2023/10/08 06:35:37;;;;;;;17.33;7.87;;;;;;;18.55;48.66;95014.31;5072148;28;20190;-46
2023/10/08 06:38:07;;;;;;;16.57;6.80;;;;;;;18.64;48.72;95009.03;5071944;28;20186;-44
2023/10/08 06:40:43;;;;;;;9.43;5.63;;;;;;;18.81;48.38;95013.09;5072115;28;20270;-44
2023/10/08 06:43:16;;;;;;;12.40;6.17;;;;;;;18.98;48.19;95005.91;5071888;28;20275;-45
2023/10/08 06:45:45;;;;;;;13.77;6.67;;;;;;;19.09;48.31;95002.84;5071573;28;20198;-46
2023/10/08 06:48:18;;;;;;;13.30;6.83;;;;;;;19.37;47.39;95005.53;5071797;28;20277;-45
2023/10/08 06:50:47;;;;;;;14.23;6.50;;;;;;;19.53;47.26;95005.31;5071394;28;20226;-45
2023/10/08 06:53:15;;;;;;;17.60;6.93;;;;;;;19.71;46.89;95007.50;5071816;28;20719;-44
2023/10/08 06:55:43;;;;;;;16.70;6.87;;;;;;;19.88;46.71;94996.84;5071740;28;20189;-45
2023/10/08 06:58:11;;;;;;;12.13;6.83;;;;;;;20.07;46.26;94998.78;5071955;28;20194;-44
2023/10/08 07:00:40;;;;;;;15.47;7.30;;;;;;;20.12;45.62;95004.25;5072167;28;20187;-43
2023/10/08 07:03:10;;;;;;;17.17;7.17;;;;;;;20.25;45.70;95008.69;5071490;28;20202;-45
2023/10/08 07:05:40;;;;;;;17.33;6.43;;;;;;;20.39;45.55;94994.03;5072018;28;20217;-47
2023/10/08 07:08:13;;;;;;;17.90;6.80;;;;;;;20.66;45.43;95000.19;5071839;28;20186;-46
2023/10/08 07:10:47;;;;;;;15.77;6.32;;;;;;;20.99;44.54;95008.16;5071405;28;20201;-45
2023/10/08 07:13:17;;;;;;;13.95;6.45;;;;;;;21.18;43.81;94985.81;5070831;28;20222;-45
2023/10/08 07:15:44;;;;;;;12.63;6.22;;;;;;;21.53;43.24;94995.09;5071004;28;20187;-47
2023/10/08 07:18:13;;;;;;;9.45;6.03;;;;;;;21.73;42.51;94986.53;5071416;28;20727;-46
2023/10/08 07:20:41;;;;;;;9.25;4.78;;;;;;;22.02;41.44;94983.53;5071696;28;20727;-45
2023/10/08 07:23:18;;;;;;;12.45;5.63;;;;;;;22.35;40.23;94984.53;5070965;28;20588;-46
2023/10/08 07:25:51;;;;;;;8.98;4.30;;;;;;;22.69;38.40;94984.22;5071416;28;20205;-45
2023/10/08 07:28:19;;;;;;;4.88;3.88;;;;;;;23.12;37.15;94988.91;5071214;28;20369;-47
2023/10/08 07:30:48;;;;;;;6.60;3.70;;;;;;;23.48;34.53;94983.09;5071061;28;20182;-44
2023/10/08 07:33:18;;;;;;;5.05;3.38;;;;;;;23.82;34.07;94975.06;5070922;28;20651;-45
2023/10/08 07:35:53;;;;;;;6.93;3.25;;;;;;;24.13;32.23;94977.59;5070176;28;20197;-46
2023/10/08 07:38:22;;;;;;;8.90;4.20;;;;;;;24.31;32.48;94971.63;5070865;28;20190;-46
2023/10/08 07:40:49;;;;;;;11.38;4.35;;;;;;;24.53;32.63;94958.97;5070743;28;20280;-45
2023/10/08 07:43:24;;;;;;;8.80;3.70;;;;;;;24.88;32.00;94966.22;5069444;28;20197;-46
2023/10/08 07:45:53;;;;;;;6.05;3.50;;;;;;;25.13;31.09;94960.88;5070712;28;20218;-44
2023/10/08 07:48:22;;;;;;;7.80;4.20;;;;;;;25.24;30.88;94958.31;5070892;28;20740;-46
2023/10/08 07:53:38;;;;;;;5.68;3.72;;;;;;;25.33;30.40;94952.78;5070521;28;20727;-45
2023/10/08 07:56:08;;;;;;;3.88;3.00;;;;;;;25.43;31.04;94953.03;5070338;28;20185;-45
2023/10/08 07:58:35;;;;;;;8.40;4.13;;;;;;;25.56;30.54;94952.03;5070455;28;20278;-45
2023/10/08 08:01:06;;;;;;;10.38;3.67;;;;;;;25.60;30.30;94946.13;5069927;28;20267;-45
2023/10/08 08:03:36;;;;;;;7.15;3.67;;;;;;;25.65;30.21;94958.56;5070421;28;20236;-46
2023/10/08 08:06:05;;;;;;;7.35;3.75;;;;;;;25.78;30.26;94961.00;5070223;28;20182;-46
2023/10/08 08:08:35;;;;;;;4.65;3.50;;;;;;;25.83;30.93;94968.97;5070117;28;20205;-44
2023/10/08 08:11:06;;;;;;;6.35;3.65;;;;;;;26.05;30.53;94955.34;5069718;28;20202;-46
2023/10/08 08:13:33;;;;;;;7.00;3.80;;;;;;;26.19;30.11;94936.50;5070109;28;20214;-46
2023/10/08 08:16:09;;;;;;;6.05;3.65;;;;;;;26.30;29.80;94936.75;5069784;28;20646;-45
2023/10/08 08:18:37;;;;;;;7.45;3.25;;;;;;;26.23;29.62;94932.41;5070396;28;20609;-46
2023/10/08 08:21:05;;;;;;;5.82;3.67;;;;;;;26.36;29.26;94941.06;5069973;28;20190;-44
2023/10/08 08:23:32;;;;;;;6.47;3.40;;;;;;;26.35;29.84;94939.47;5070049;28;20191;-46
2023/10/08 08:26:26;;;;;;;5.00;3.55;;;;;;;26.36;29.40;94941.06;5069771;28;20252;-45
2023/10/08 08:28:54;;;;;;;5.97;3.33;;;;;;;26.48;29.68;94940.06;5069538;28;20677;-45
2023/10/08 08:31:21;;;;;;;5.82;3.90;;;;;;;26.64;29.59;94932.47;5069609;28;20187;-45
2023/10/08 08:33:53;;;;;;;7.00;4.13;;;;;;;26.66;29.97;94923.34;5069746;28;20226;-46
2023/10/08 08:36:21;;;;;;;6.85;3.67;;;;;;;26.80;30.27;94929.13;5069667;28;20194;-46
2023/10/08 08:38:48;;;;;;;4.78;3.50;;;;;;;26.74;29.26;94924.84;5070392;28;20214;-46
2023/10/08 08:41:18;;;;;;;6.40;4.05;;;;;;;26.47;29.80;94914.06;5069451;28;20198;-46
2023/10/08 08:43:48;;;;;;;9.80;4.63;;;;;;;26.29;30.12;94925.44;5069534;28;20198;-45
2023/10/08 08:46:16;;;;;;;5.15;3.90;;;;;;;26.13;30.75;94928.78;5069455;28;20194;-45
2023/10/08 08:48:45;;;;;;;9.23;3.92;;;;;;;26.03;31.08;94922.25;5069768;28;20186;-46
2023/10/08 08:51:13;;;;;;;8.25;4.63;;;;;;;25.97;31.02;94911.91;5069611;28;20831;-47
2023/10/08 08:53:40;;;;;;;6.78;3.90;;;;;;;26.09;30.59;94912.72;5069692;28;20317;-45
2023/10/08 08:56:10;;;;;;;7.47;4.38;;;;;;;26.14;30.31;94920.69;5069719;28;20317;-45
2023/10/08 08:58:41;;;;;;;7.47;4.85;;;;;;;26.11;30.46;94918.50;5070261;28;20202;-46
2023/10/08 09:01:12;;;;;;;5.65;3.53;;;;;;;26.11;31.06;94907.22;5073907;28;20186;-49
2023/10/08 09:03:39;;;;;;;10.23;4.40;;;;;;;26.07;30.85;94912.13;5070878;28;20186;-46
2023/10/08 09:06:06;;;;;;;10.48;4.30;;;;;;;25.87;31.10;94915.09;5070879;28;20623;-45
2023/10/08 09:08:37;;;;;;;8.20;3.95;;;;;;;25.81;31.37;94909.97;5070006;28;20273;-46
2023/10/08 09:11:05;;;;;;;7.97;4.38;;;;;;;25.68;31.03;94910.94;5070330;28;20295;-46
2023/10/08 09:13:34;;;;;;;6.47;4.75;;;;;;;25.47;31.32;94917.50;5070553;28;20275;-46
2023/10/08 09:16:12;;;;;;;7.03;4.53;;;;;;;25.36;31.68;94908.63;5070157;28;20193;-45
2023/10/08 09:18:39;;;;;;;6.35;4.03;;;;;;;25.30;31.43;94906.06;5069560;28;20197;-46
2023/10/08 09:21:11;;;;;;;11.15;4.30;;;;;;;25.33;31.77;94909.06;5069680;28;20182;-46
2023/10/08 09:23:47;;;;;;;8.05;4.13;;;;;;;25.34;31.69;94907.22;5069450;28;20642;-45
2023/10/08 09:26:14;;;;;;;9.45;4.60;;;;;;;25.38;31.62;94903.13;5069575;28;20677;-45
2023/10/08 09:28:46;;;;;;;8.57;4.43;;;;;;;25.32;31.63;94896.19;5069656;28;20692;-46
2023/10/08 09:31:15;;;;;;;6.80;3.80;;;;;;;25.28;31.96;94903.69;5076634;28;20239;-46
2023/10/08 09:33:42;;;;;;;10.50;4.55;;;;;;;25.35;31.39;94891.31;5071654;28;20216;-45
2023/10/08 09:36:18;;;;;;;7.57;3.97;;;;;;;25.37;31.87;94891.06;5071031;28;20186;-45
2023/10/08 09:38:48;;;;;;;5.25;4.18;;;;;;;25.33;31.74;94895.16;5069344;28;20201;-46
2023/10/08 09:41:15;;;;;;;7.55;4.07;;;;;;;25.31;31.80;94889.38;5069203;28;20201;-44
2023/10/08 09:43:43;;;;;;;6.05;3.95;;;;;;;25.39;31.92;94878.53;5069069;28;20256;-45
2023/10/08 09:46:17;;;;;;;8.43;4.30;;;;;;;25.52;32.04;94879.16;5069068;28;20201;-46
2023/10/08 09:48:50;;;;;;;7.75;4.18;;;;;;;25.68;31.32;94874.25;5069123;28;20179;-45
2023/10/08 09:51:17;;;;;;;6.30;3.45;;;;;;;25.75;31.18;94877.56;5068842;28;20183;-45
2023/10/08 09:53:54;;;;;;;9.02;5.00;;;;;;;25.69;31.02;94873.22;5068679;28;20237;-45
2023/10/08 09:56:24;;;;;;;7.13;3.92;;;;;;;25.63;31.31;94879.38;5069001;28;20221;-45
2023/10/08 09:58:53;;;;;;;6.22;3.67;;;;;;;25.40;31.65;94874.94;5070797;28;20187;-46
2023/10/08 10:01:26;;;;;;;7.93;3.92;;;;;;;25.45;31.57;94880.28;5072931;28;20577;-45
2023/10/08 10:03:54;;;;;;;5.15;3.55;;;;;;;25.41;31.52;94874.69;5072858;28;20575;-46
2023/10/08 10:06:25;;;;;;;6.00;4.05;;;;;;;25.36;31.67;94876.41;5072673;28;20632;-45
2023/10/08 10:08:53;;;;;;;7.07;4.15;;;;;;;25.30;31.91;94872.84;5072324;28;20299;-45
2023/10/08 10:11:20;;;;;;;6.03;3.90;;;;;;;25.25;32.11;94867.47;5072140;28;20578;-46
2023/10/08 10:14:01;;;;;;;6.93;3.88;;;;;;;25.06;32.15;94865.94;5072201;28;20214;-45
2023/10/08 10:16:39;;;;;;;9.00;4.22;;;;;;;24.95;32.92;94857.00;5067421;28;20194;-46
2023/10/08 10:19:06;;;;;;;5.10;3.63;;;;;;;24.86;32.89;94855.75;5072474;28;20182;-45
2023/10/08 10:21:36;;;;;;;4.75;3.55;;;;;;;24.82;32.97;94847.53;5072581;28;20252;-45
2023/10/08 10:24:10;;;;;;;5.13;3.67;;;;;;;25.00;32.40;94844.88;5072580;28;20198;-45
2023/10/08 10:26:46;;;;;;;13.57;3.55;;;;;;;25.07;32.46;94841.34;5071785;28;20743;-45
2023/10/08 10:29:26;;;;;;;9.38;3.80;;;;;;;25.20;31.95;94839.38;5071985;28;20194;-47
2023/10/08 10:31:56;;;;;;;7.03;3.80;;;;;;;25.27;32.25;94841.91;5071833;28;20183;-47
2023/10/08 10:34:27;;;;;;;10.70;3.90;;;;;;;25.36;32.08;94835.28;5072318;28;20214;-45
2023/10/08 10:36:56;;;;;;;7.75;4.07;;;;;;;25.28;32.51;94825.94;5071921;28;20318;-47
2023/10/08 10:39:27;;;;;;;9.98;3.58;;;;;;;24.99;32.77;94798.78;5072316;28;20615;-45
2023/10/08 10:42:01;;;;;;;9.93;3.90;;;;;;;25.15;33.40;94835.84;5071642;28;20630;-45
2023/10/08 10:44:29;;;;;;;6.32;3.15;;;;;;;25.06;33.73;94821.44;5072344;28;20210;-47
2023/10/08 10:52:53;;;;;;;6.30;3.55;;;;;;;24.58;34.15;94823.13;5107895;27;20544;-45
2023/10/08 10:55:31;;;;;;;5.03;3.08;;;;;;;24.49;34.83;94821.84;5107306;28;20246;-46
2023/10/08 10:58:14;;;;;;;4.93;3.33;;;;;;;24.33;34.99;94809.34;5107486;28;20227;-45
2023/10/08 11:00:49;;;;;;;4.88;3.20;;;;;;;24.17;35.33;94814.13;5107864;28;20177;-47
2023/10/08 11:03:23;;;;;;;5.13;3.63;;;;;;;23.92;35.83;94787.28;5107885;28;20223;-45
2023/10/08 11:05:54;;;;;;;6.00;3.53;;;;;;;24.13;35.54;94799.09;5107256;28;20565;-45
2023/10/08 11:08:24;;;;;;;3.70;2.97;;;;;;;24.29;35.46;94798.50;5107148;28;20185;-44
2023/10/08 11:10:53;;;;;;;5.80;3.42;;;;;;;24.42;35.39;94785.31;5107770;28;20699;-47
2023/10/08 11:13:21;;;;;;;5.55;3.40;;;;;;;24.62;35.05;94798.13;5108594;28;20222;-46
2023/10/08 11:15:51;;;;;;;4.10;3.30;;;;;;;24.56;35.54;94787.75;5107949;28;20216;-46
2023/10/08 11:18:20;;;;;;;4.32;3.00;;;;;;;24.55;35.34;94786.94;5108928;28;20286;-45
2023/10/08 11:20:54;;;;;;;5.95;2.92;;;;;;;23.78;35.29;94658.66;5108040;28;20200;-46
2023/10/08 11:23:36;;;;;;;6.85;3.55;;;;;;;24.73;34.86;94778.25;5107394;28;20197;-46
2023/10/08 11:26:05;;;;;;;6.22;3.58;;;;;;;24.71;35.28;94762.78;5106606;28;20183;-46
2023/10/08 11:28:34;;;;;;;5.22;3.47;;;;;;;24.95;35.08;94770.66;5106800;28;20193;-46
2023/10/08 11:31:07;;;;;;;6.63;3.72;;;;;;;25.05;35.08;94770.94;5106719;28;20223;-46
2023/10/08 11:33:36;;;;;;;5.00;3.38;;;;;;;25.13;35.27;94765.41;5106434;28;20275;-46
2023/10/08 11:36:06;;;;;;;7.55;3.70;;;;;;;25.24;35.92;94769.81;5107746;28;20614;-45
2023/10/08 11:38:41;;;;;;;10.73;3.35;;;;;;;25.32;35.62;94757.44;5106737;28;20197;-45
2023/10/08 11:41:20;;;;;;;7.18;3.70;;;;;;;25.32;35.42;94753.00;5106404;28;20196;-46
2023/10/08 11:43:53;;;;;;;7.82;3.38;;;;;;;25.36;35.00;94745.47;5106199;28;20624;-46
2023/10/08 11:46:27;;;;;;;8.07;3.42;;;;;;;25.51;35.20;94767.53;5106768;28;20197;-46
2023/10/08 11:48:57;;;;;;;10.85;3.50;;;;;;;25.51;35.42;94762.31;5106185;28;20189;-45
2023/10/08 11:51:24;;;;;;;13.38;3.63;;;;;;;25.53;35.33;94772.56;5105836;28;20224;-46
2023/10/08 11:53:53;;;;;;;10.85;4.15;;;;;;;25.56;34.85;94773.91;5106015;28;20522;-46
2023/10/08 11:56:23;;;;;;;8.85;3.70;;;;;;;25.50;35.47;94770.41;5106084;28;20635;-46
2023/10/08 11:58:52;;;;;;;12.07;3.88;;;;;;;25.53;34.93;94773.38;5106337;28;20280;-46
2023/10/08 12:01:20;;;;;;;15.50;3.72;;;;;;;25.46;35.31;94780.53;5106427;28;20575;-45
2023/10/08 12:03:49;;;;;;;13.25;3.78;;;;;;;25.46;34.99;94770.06;5094450;28;20722;-47
2023/10/08 12:06:21;;;;;;;9.90;3.08;;;;;;;25.41;35.08;94764.72;5092295;28;20194;-46
2023/10/08 12:08:53;;;;;;;8.23;3.35;;;;;;;25.37;35.33;94755.72;5091888;28;20289;-46
2023/10/08 12:11:23;;;;;;;9.95;3.88;;;;;;;25.29;35.87;94756.06;5091908;28;20290;-47
2023/10/08 12:13:50;;;;;;;5.95;3.63;;;;;;;25.30;35.49;94755.03;5092089;28;20189;-45
2023/10/08 12:16:21;;;;;;;9.73;3.60;;;;;;;25.32;35.61;94755.59;5092297;28;20200;-46